Hhl Rio De Janeiro — D5AU2 — position and weather

sailwx.info

Track history (hours):
 
Tides and Currents Weather Stations Pressure Air Temp Water Temp Dewpoint Dewpoint Depression Visibility Wind Speed Wind Dir Waves Ship Positions

Hhl Rio De Janeiro

Last reported at 2016-Jul-27 14:32 UTC. Time now 2016-Jul-27 15:28 UTC.
Position N 49°34' W 000°07'.

Length 168 m; draft 6.7 m.

Type: Cargo ship. MMSI: 636092346.

Date/timePositionNaut miles runAvg speedWind from/ knotsBaromVisibWave heightAir tempDewpointWater temp
2016-Jul-27 14:32N 49°34' W 000°07'0 0.0
2016-Jul-27 13:32N 49°34' W 000°07'0 0.0
2016-Jul-27 12:32N 49°34' W 000°07'0 0.0
2016-Jul-27 11:32N 49°34' W 000°07'0 0.0
2016-Jul-27 10:32N 49°34' W 000°07'0 0.0
2016-Jul-27 09:32N 49°34' W 000°07'0 0.1
2016-Jul-27 08:32N 49°34' W 000°08'0 0.0
2016-Jul-27 07:32N 49°34' W 000°08'0 0.0
2016-Jul-27 06:32N 49°34' W 000°08'0 0.0
2016-Jul-27 05:32N 49°34' W 000°07'0 0.0
2016-Jul-27 04:32N 49°34' W 000°07'0 0.0
2016-Jul-27 03:32N 49°34' W 000°07'0 0.0
2016-Jul-27 02:32N 49°34' W 000°07'0 0.0
2016-Jul-27 01:32N 49°34' W 000°07'0 0.0
2016-Jul-27 00:32N 49°34' W 000°07'0 0.1
2016-Jul-26 23:32N 49°34' W 000°07'0 0.0
2016-Jul-26 22:32N 49°34' W 000°07'0 0.1
2016-Jul-26 21:32N 49°34' W 000°08'0 0.1
2016-Jul-26 20:29N 49°34' W 000°08'0 0.0
2016-Jul-26 19:32N 49°34' W 000°08'0 0.0
2016-Jul-26 18:32N 49°34' W 000°08'0 0.1
2016-Jul-26 17:32N 49°34' W 000°08'0 0.1
2016-Jul-26 16:32N 49°34' W 000°07'0 0.0
2016-Jul-26 15:32N 49°34' W 000°07'0 0.0
2016-Jul-26 14:32N 49°34' W 000°07'0 0.0
2016-Jul-26 13:32N 49°34' W 000°07'0 0.0
2016-Jul-26 12:32N 49°34' W 000°07'0 0.0
2016-Jul-26 11:32N 49°34' W 000°07'0 0.1
2016-Jul-26 10:32N 49°34' W 000°08'0 0.1
2016-Jul-26 09:32N 49°34' W 000°08'0 0.1
2016-Jul-26 08:32N 49°34' W 000°08'0 0.0
2016-Jul-26 07:32N 49°34' W 000°08'0 0.1
2016-Jul-26 06:32N 49°34' W 000°08'0 0.1
2016-Jul-26 05:32N 49°34' W 000°08'0 0.1
2016-Jul-26 04:32N 49°34' W 000°07'0 0.0
2016-Jul-26 03:32N 49°34' W 000°07'0 0.0
2016-Jul-26 02:29N 49°34' W 000°07'0 0.0
2016-Jul-26 01:32N 49°34' W 000°07'0 0.0
2016-Jul-26 00:32N 49°34' W 000°07'0 0.0
2016-Jul-25 23:32N 49°34' W 000°07'0 0.1
2016-Jul-25 22:32N 49°34' W 000°07'0 0.1
2016-Jul-25 21:32N 49°34' W 000°08'0 0.0
2016-Jul-25 20:32N 49°34' W 000°08'0 0.1
2016-Jul-25 19:32N 49°34' W 000°08'0 0.0
2016-Jul-25 18:32N 49°34' W 000°08'0 0.0
2016-Jul-25 17:32N 49°34' W 000°08'0 0.1
2016-Jul-25 16:32N 49°34' W 000°08'0 0.1
2016-Jul-25 15:32N 49°34' W 000°07'7 6.8
2016-Jul-25 14:33N 49°30' E 000°01'4 4.2
2016-Jul-25 13:32N 49°29' E 000°07'0 0.0
2016-Jul-25 12:32N 49°29' E 000°07'0 0.0
2016-Jul-25 11:32N 49°29' E 000°07'0 0.0
2016-Jul-25 10:26N 49°29' E 000°07'0 0.0
2016-Jul-25 09:32N 49°29' E 000°07'0 0.0
2016-Jul-25 08:32N 49°29' E 000°07'0 0.0
2016-Jul-25 07:32N 49°29' E 000°07'0 0.0
2016-Jul-25 06:32N 49°29' E 000°07'1 1.3
2016-Jul-25 05:33N 49°29' E 000°05'8 8.4
2016-Jul-25 04:33N 49°30' W 000°07'1 1.3
2016-Jul-25 03:31N 49°29' W 000°08'0 0.0
2016-Jul-25 02:31N 49°29' W 000°08'0 0.0
2016-Jul-25 01:31N 49°29' W 000°08'0 0.0
2016-Jul-25 00:31N 49°29' W 000°08'0 0.0
2016-Jul-24 23:31N 49°29' W 000°08'0 0.1
2016-Jul-24 22:31N 49°29' W 000°08'0 0.1
2016-Jul-24 21:31N 49°29' W 000°08'0 0.1
2016-Jul-24 20:31N 49°29' W 000°08'0 0.0
2016-Jul-24 19:31N 49°29' W 000°08'0 0.0
2016-Jul-24 18:28N 49°29' W 000°08'0 0.0
2016-Jul-24 17:31N 49°29' W 000°08'0 0.0
2016-Jul-24 16:31N 49°29' W 000°08'0 0.0
2016-Jul-24 15:31N 49°29' W 000°08'0 0.1
2016-Jul-24 14:31N 49°29' W 000°08'0 0.1
2016-Jul-24 13:31N 49°29' W 000°08'0 0.0
2016-Jul-24 12:31N 49°29' W 000°08'0 0.0
2016-Jul-24 11:31N 49°29' W 000°08'0 0.0
2016-Jul-24 10:31N 49°29' W 000°08'0 0.1
2016-Jul-24 09:31N 49°29' W 000°08'0 0.0
2016-Jul-24 08:31N 49°29' W 000°08'0 0.1
2016-Jul-24 07:31N 49°29' W 000°08'0 0.0
2016-Jul-24 06:31N 49°29' W 000°08'0 0.0
2016-Jul-24 05:31N 49°29' W 000°08'0 0.0
2016-Jul-24 04:31N 49°29' W 000°08'0 0.1
2016-Jul-24 03:31N 49°29' W 000°08'0 0.1
2016-Jul-24 02:31N 49°29' W 000°08'0 0.0
2016-Jul-24 01:31N 49°29' W 000°08'0 0.0
2016-Jul-24 00:31N 49°29' W 000°08'0 0.0
2016-Jul-23 23:31N 49°29' W 000°08'0 0.0
2016-Jul-23 22:31N 49°29' W 000°08'0 0.1
2016-Jul-23 21:31N 49°29' W 000°08'0 0.1
2016-Jul-23 20:31N 49°29' W 000°08'0 0.1
2016-Jul-23 19:31N 49°29' W 000°08'0 0.0
2016-Jul-23 18:31N 49°29' W 000°08'0 0.0
2016-Jul-23 17:31N 49°29' W 000°08'0 0.0
2016-Jul-23 16:31N 49°29' W 000°08'0 0.0
2016-Jul-23 15:31N 49°29' W 000°08'0 0.0
2016-Jul-23 14:31N 49°29' W 000°08'0 0.1
2016-Jul-23 13:31N 49°29' W 000°08'0 0.0
2016-Jul-23 12:31N 49°29' W 000°08'0 0.0
2016-Jul-23 11:31N 49°29' W 000°08'0 0.0
2016-Jul-23 10:31N 49°29' W 000°08'0 0.1
2016-Jul-23 09:31N 49°29' W 000°08'0 0.1
2016-Jul-23 08:31N 49°29' W 000°08'0 0.0
2016-Jul-23 07:31N 49°29' W 000°08'0 0.1
2016-Jul-23 06:31N 49°29' W 000°08'0 0.0
2016-Jul-23 04:31N 49°29' W 000°08'0 0.1
2016-Jul-23 03:31N 49°29' W 000°08'0 0.2
2016-Jul-23 02:31N 49°29' W 000°08'0 0.0
2016-Jul-23 01:31N 49°29' W 000°08'0 0.0
2016-Jul-23 00:31N 49°29' W 000°08'0 0.0
2016-Jul-22 23:31N 49°29' W 000°08'0 0.0
2016-Jul-22 22:31N 49°29' W 000°08'0 0.1
2016-Jul-22 21:31N 49°29' W 000°08'0 0.1
2016-Jul-22 20:31N 49°29' W 000°08'0 0.1
2016-Jul-22 19:31N 49°29' W 000°08'0 0.0
2016-Jul-22 18:31N 49°29' W 000°08'0 0.0
2016-Jul-22 17:31N 49°29' W 000°08'0 0.0
2016-Jul-22 16:31N 49°29' W 000°08'0 0.0
2016-Jul-22 15:31N 49°29' W 000°08'0 0.0
2016-Jul-22 14:31N 49°29' W 000°08'0 0.1
2016-Jul-22 13:31N 49°29' W 000°08'0 0.1
2016-Jul-22 12:31N 49°29' W 000°08'0 0.0
2016-Jul-22 11:31N 49°29' W 000°08'0 0.0
2016-Jul-22 10:31N 49°29' W 000°08'0 0.0
2016-Jul-22 09:31N 49°29' W 000°08'0 0.1
2016-Jul-22 08:31N 49°29' W 000°08'0 0.1
2016-Jul-22 07:31N 49°29' W 000°08'0 0.0
2016-Jul-22 04:31N 49°29' W 000°08'0 0.0
2016-Jul-22 03:31N 49°29' W 000°08'0 0.0
2016-Jul-22 02:31N 49°29' W 000°08'0 0.1
2016-Jul-22 01:31N 49°29' W 000°08'0 0.1
2016-Jul-22 00:31N 49°29' W 000°08'0 0.0
2016-Jul-21 23:31N 49°29' W 000°08'0 0.0
2016-Jul-21 22:31N 49°29' W 000°08'0 0.0
2016-Jul-21 21:31N 49°29' W 000°08'0 0.1
2016-Jul-21 20:31N 49°29' W 000°08'0 0.1
2016-Jul-21 19:31N 49°29' W 000°08'0 0.1
2016-Jul-21 18:31N 49°29' W 000°08'0 0.0
2016-Jul-21 17:31N 49°29' W 000°08'0 0.0
2016-Jul-21 16:31N 49°29' W 000°08'0 0.0
2016-Jul-21 15:31N 49°29' W 000°08'0 0.0
2016-Jul-21 14:31N 49°29' W 000°08'0 0.1
2016-Jul-21 13:31N 49°29' W 000°08'0 0.2
2016-Jul-21 12:31N 49°29' W 000°08'0 0.0
2016-Jul-21 11:31N 49°29' W 000°08'0 0.1
2016-Jul-21 10:31N 49°29' W 000°08'0 0.0
2016-Jul-21 09:31N 49°29' W 000°08'0 0.0
2016-Jul-21 08:31N 49°29' W 000°08'0 0.1
2016-Jul-21 07:31N 49°29' W 000°08'0 0.1
2016-Jul-21 06:31N 49°29' W 000°08'0 0.1
2016-Jul-21 05:31N 49°29' W 000°08'0 0.0
2016-Jul-21 04:31N 49°29' W 000°08'0 0.1
2016-Jul-21 03:31N 49°29' W 000°08'0 0.1
2016-Jul-21 02:31N 49°29' W 000°08'0 0.0
2016-Jul-21 01:31N 49°29' W 000°08'0 0.1
2016-Jul-21 00:31N 49°29' W 000°08'0 0.0
2016-Jul-20 23:31N 49°29' W 000°08'0 0.0
2016-Jul-20 22:31N 49°29' W 000°08'0 0.0
2016-Jul-20 21:31N 49°29' W 000°08'0 0.0
2016-Jul-20 20:31N 49°29' W 000°08'0 0.1
2016-Jul-20 19:31N 49°29' W 000°08'0 0.1
2016-Jul-20 18:28N 49°29' W 000°08'0 0.0
2016-Jul-20 17:31N 49°29' W 000°08'0 0.1
2016-Jul-20 16:31N 49°29' W 000°08'0 0.1
2016-Jul-20 15:31N 49°29' W 000°08'0 0.0
2016-Jul-20 14:31N 49°29' W 000°08'0 0.1
2016-Jul-20 13:31N 49°29' W 000°08'0 0.0
2016-Jul-20 12:31N 49°29' W 000°08'0 0.1
2016-Jul-20 11:31N 49°29' W 000°08'0 0.1
2016-Jul-20 10:31N 49°29' W 000°08'0 0.0
2016-Jul-20 09:31N 49°29' W 000°08'0 0.0
2016-Jul-20 08:31N 49°29' W 000°08'0 0.0
2016-Jul-20 07:31N 49°29' W 000°08'0 0.0
2016-Jul-20 06:34N 49°29' W 000°08'0 0.2
2016-Jul-20 05:31N 49°29' W 000°08'0 0.0
2016-Jul-20 04:31N 49°29' W 000°08'0 0.0
2016-Jul-20 03:31N 49°29' W 000°08'0 0.0
2016-Jul-20 02:31N 49°29' W 000°08'0 0.1
2016-Jul-20 01:31N 49°29' W 000°08'0 0.0
2016-Jul-20 00:31N 49°29' W 000°08'0 0.1
2016-Jul-19 23:31N 49°29' W 000°08'0 0.2
2016-Jul-19 22:31N 49°29' W 000°08'0 0.0
2016-Jul-19 21:31N 49°29' W 000°08'0 0.0
2016-Jul-19 20:31N 49°29' W 000°08'0 0.1
2016-Jul-19 19:31N 49°29' W 000°08'0 0.2
2016-Jul-19 18:31N 49°29' W 000°08'0 0.1
2016-Jul-19 17:31N 49°29' W 000°08'0 0.1
2016-Jul-19 16:31N 49°29' W 000°08'0 0.0
2016-Jul-19 15:31N 49°29' W 000°08'0 0.0
2016-Jul-19 14:31N 49°29' W 000°08'0 0.0
2016-Jul-19 13:31N 49°29' W 000°08'0 0.0
2016-Jul-19 12:31N 49°29' W 000°08'0 0.0
2016-Jul-19 11:31N 49°29' W 000°08'0 0.1
2016-Jul-19 10:31N 49°29' W 000°08'0 0.1
2016-Jul-19 09:31N 49°29' W 000°08'0 0.0
2016-Jul-19 08:31N 49°29' W 000°08'0 0.0
2016-Jul-19 07:31N 49°29' W 000°08'0 0.1
2016-Jul-19 04:31N 49°29' W 000°08'0 0.0
2016-Jul-19 03:31N 49°29' W 000°08'0 0.0
2016-Jul-19 02:31N 49°29' W 000°08'0 0.0
2016-Jul-19 01:31N 49°29' W 000°08'0 0.0
2016-Jul-19 00:31N 49°29' W 000°08'0 0.0
2016-Jul-18 23:31N 49°29' W 000°08'0 0.0
2016-Jul-18 22:31N 49°29' W 000°08'0 0.1
2016-Jul-18 21:31N 49°29' W 000°08'0 0.0
2016-Jul-18 20:25N 49°29' W 000°08'0 0.0
2016-Jul-18 19:31N 49°29' W 000°08'0 0.2
2016-Jul-18 18:31N 49°29' W 000°08'0 0.0
2016-Jul-18 17:31N 49°29' W 000°08'0 0.0
2016-Jul-18 16:31N 49°29' W 000°08'0 0.0
2016-Jul-18 15:31N 49°29' W 000°08'0 0.0
2016-Jul-18 14:31N 49°29' W 000°08'0 0.0
2016-Jul-18 13:31N 49°29' W 000°08'0 0.0
2016-Jul-18 12:31N 49°29' W 000°08'0 0.0
2016-Jul-18 11:31N 49°29' W 000°08'0 0.1
2016-Jul-18 10:31N 49°29' W 000°08'0 0.1
2016-Jul-18 09:31N 49°29' W 000°08'0 0.1
2016-Jul-18 08:31N 49°29' W 000°08'0 0.1
2016-Jul-18 07:31N 49°29' W 000°08'0 0.0
2016-Jul-18 06:31N 49°29' W 000°08'0 0.1
2016-Jul-18 05:31N 49°29' W 000°08'0 0.1
2016-Jul-18 04:31N 49°29' W 000°08'0 0.1
2016-Jul-18 03:31N 49°29' W 000°08'0 0.0
2016-Jul-18 02:31N 49°29' W 000°08'0 0.0
2016-Jul-18 01:31N 49°29' W 000°08'0 0.0
2016-Jul-18 00:31N 49°29' W 000°08'0 0.0
2016-Jul-17 23:31N 49°29' W 000°08'0 0.1
2016-Jul-17 22:31N 49°29' W 000°08'0 0.1
2016-Jul-17 21:31N 49°29' W 000°08'0 0.1
2016-Jul-17 20:31N 49°29' W 000°08'0 0.0
2016-Jul-17 19:31N 49°29' W 000°08'0 0.0
2016-Jul-17 18:31N 49°29' W 000°08'0 0.1
2016-Jul-17 17:31N 49°29' W 000°08'0 0.1
2016-Jul-17 16:31N 49°29' W 000°08'0 0.1
2016-Jul-17 15:31N 49°29' W 000°08'  
Track history (hours):
 
Tides and Currents Weather Stations Pressure Air Temp Water Temp Dewpoint Dewpoint Depression Visibility Wind Speed Wind Dir Waves Ship Positions

Hhl Rio De Janeiro

Last reported at 2016-Jul-27 14:32 UTC. Time now 2016-Jul-27 15:28 UTC.
Position N 49°34' W 000°07'.

Length 168 m; draft 6.7 m.

Type: Cargo ship. MMSI: 636092346.

Date/timePositionNaut miles runAvg speedWind from/ knotsBaromVisibWave heightAir tempDewpointWater temp
2016-Jul-27 14:32N 49°34' W 000°07'0 0.0
2016-Jul-27 13:32N 49°34' W 000°07'0 0.0
2016-Jul-27 12:32N 49°34' W 000°07'0 0.0
2016-Jul-27 11:32N 49°34' W 000°07'0 0.0
2016-Jul-27 10:32N 49°34' W 000°07'0 0.0
2016-Jul-27 09:32N 49°34' W 000°07'0 0.1
2016-Jul-27 08:32N 49°34' W 000°08'0 0.0
2016-Jul-27 07:32N 49°34' W 000°08'0 0.0
2016-Jul-27 06:32N 49°34' W 000°08'0 0.0
2016-Jul-27 05:32N 49°34' W 000°07'0 0.0
2016-Jul-27 04:32N 49°34' W 000°07'0 0.0
2016-Jul-27 03:32N 49°34' W 000°07'0 0.0
2016-Jul-27 02:32N 49°34' W 000°07'0 0.0
2016-Jul-27 01:32N 49°34' W 000°07'0 0.0
2016-Jul-27 00:32N 49°34' W 000°07'0 0.1
2016-Jul-26 23:32N 49°34' W 000°07'0 0.0
2016-Jul-26 22:32N 49°34' W 000°07'0 0.1
2016-Jul-26 21:32N 49°34' W 000°08'0 0.1
2016-Jul-26 20:29N 49°34' W 000°08'0 0.0
2016-Jul-26 19:32N 49°34' W 000°08'0 0.0
2016-Jul-26 18:32N 49°34' W 000°08'0 0.1
2016-Jul-26 17:32N 49°34' W 000°08'0 0.1
2016-Jul-26 16:32N 49°34' W 000°07'0 0.0
2016-Jul-26 15:32N 49°34' W 000°07'0 0.0
2016-Jul-26 14:32N 49°34' W 000°07'0 0.0
2016-Jul-26 13:32N 49°34' W 000°07'0 0.0
2016-Jul-26 12:32N 49°34' W 000°07'0 0.0
2016-Jul-26 11:32N 49°34' W 000°07'0 0.1
2016-Jul-26 10:32N 49°34' W 000°08'0 0.1
2016-Jul-26 09:32N 49°34' W 000°08'0 0.1
2016-Jul-26 08:32N 49°34' W 000°08'0 0.0
2016-Jul-26 07:32N 49°34' W 000°08'0 0.1
2016-Jul-26 06:32N 49°34' W 000°08'0 0.1
2016-Jul-26 05:32N 49°34' W 000°08'0 0.1
2016-Jul-26 04:32N 49°34' W 000°07'0 0.0
2016-Jul-26 03:32N 49°34' W 000°07'0 0.0
2016-Jul-26 02:29N 49°34' W 000°07'0 0.0
2016-Jul-26 01:32N 49°34' W 000°07'0 0.0
2016-Jul-26 00:32N 49°34' W 000°07'0 0.0
2016-Jul-25 23:32N 49°34' W 000°07'0 0.1
2016-Jul-25 22:32N 49°34' W 000°07'0 0.1
2016-Jul-25 21:32N 49°34' W 000°08'0 0.0
2016-Jul-25 20:32N 49°34' W 000°08'0 0.1
2016-Jul-25 19:32N 49°34' W 000°08'0 0.0
2016-Jul-25 18:32N 49°34' W 000°08'0 0.0
2016-Jul-25 17:32N 49°34' W 000°08'0 0.1
2016-Jul-25 16:32N 49°34' W 000°08'0 0.1
2016-Jul-25 15:32N 49°34' W 000°07'7 6.8
2016-Jul-25 14:33N 49°30' E 000°01'4 4.2
2016-Jul-25 13:32N 49°29' E 000°07'0 0.0
2016-Jul-25 12:32N 49°29' E 000°07'0 0.0
2016-Jul-25 11:32N 49°29' E 000°07'0 0.0
2016-Jul-25 10:26N 49°29' E 000°07'0 0.0
2016-Jul-25 09:32N 49°29' E 000°07'0 0.0
2016-Jul-25 08:32N 49°29' E 000°07'0 0.0
2016-Jul-25 07:32N 49°29' E 000°07'0 0.0
2016-Jul-25 06:32N 49°29' E 000°07'1 1.3
2016-Jul-25 05:33N 49°29' E 000°05'8 8.4
2016-Jul-25 04:33N 49°30' W 000°07'1 1.3
2016-Jul-25 03:31N 49°29' W 000°08'0 0.0
2016-Jul-25 02:31N 49°29' W 000°08'0 0.0
2016-Jul-25 01:31N 49°29' W 000°08'0 0.0
2016-Jul-25 00:31N 49°29' W 000°08'0 0.0
2016-Jul-24 23:31N 49°29' W 000°08'0 0.1
2016-Jul-24 22:31N 49°29' W 000°08'0 0.1
2016-Jul-24 21:31N 49°29' W 000°08'0 0.1
2016-Jul-24 20:31N 49°29' W 000°08'0 0.0
2016-Jul-24 19:31N 49°29' W 000°08'0 0.0
2016-Jul-24 18:28N 49°29' W 000°08'0 0.0
2016-Jul-24 17:31N 49°29' W 000°08'0 0.0
2016-Jul-24 16:31N 49°29' W 000°08'0 0.0
2016-Jul-24 15:31N 49°29' W 000°08'0 0.1
2016-Jul-24 14:31N 49°29' W 000°08'0 0.1
2016-Jul-24 13:31N 49°29' W 000°08'0 0.0
2016-Jul-24 12:31N 49°29' W 000°08'0 0.0
2016-Jul-24 11:31N 49°29' W 000°08'0 0.0
2016-Jul-24 10:31N 49°29' W 000°08'0 0.1
2016-Jul-24 09:31N 49°29' W 000°08'0 0.0
2016-Jul-24 08:31N 49°29' W 000°08'0 0.1
2016-Jul-24 07:31N 49°29' W 000°08'0 0.0
2016-Jul-24 06:31N 49°29' W 000°08'0 0.0
2016-Jul-24 05:31N 49°29' W 000°08'0 0.0
2016-Jul-24 04:31N 49°29' W 000°08'0 0.1
2016-Jul-24 03:31N 49°29' W 000°08'0 0.1
2016-Jul-24 02:31N 49°29' W 000°08'0 0.0
2016-Jul-24 01:31N 49°29' W 000°08'0 0.0
2016-Jul-24 00:31N 49°29' W 000°08'0 0.0
2016-Jul-23 23:31N 49°29' W 000°08'0 0.0
2016-Jul-23 22:31N 49°29' W 000°08'0 0.1
2016-Jul-23 21:31N 49°29' W 000°08'0 0.1
2016-Jul-23 20:31N 49°29' W 000°08'0 0.1
2016-Jul-23 19:31N 49°29' W 000°08'0 0.0
2016-Jul-23 18:31N 49°29' W 000°08'0 0.0
2016-Jul-23 17:31N 49°29' W 000°08'0 0.0
2016-Jul-23 16:31N 49°29' W 000°08'0 0.0
2016-Jul-23 15:31N 49°29' W 000°08'0 0.0
2016-Jul-23 14:31N 49°29' W 000°08'0 0.1
2016-Jul-23 13:31N 49°29' W 000°08'0 0.0
2016-Jul-23 12:31N 49°29' W 000°08'0 0.0
2016-Jul-23 11:31N 49°29' W 000°08'0 0.0
2016-Jul-23 10:31N 49°29' W 000°08'0 0.1
2016-Jul-23 09:31N 49°29' W 000°08'0 0.1
2016-Jul-23 08:31N 49°29' W 000°08'0 0.0
2016-Jul-23 07:31N 49°29' W 000°08'0 0.1
2016-Jul-23 06:31N 49°29' W 000°08'0 0.0
2016-Jul-23 04:31N 49°29' W 000°08'0 0.1
2016-Jul-23 03:31N 49°29' W 000°08'0 0.2
2016-Jul-23 02:31N 49°29' W 000°08'0 0.0
2016-Jul-23 01:31N 49°29' W 000°08'0 0.0
2016-Jul-23 00:31N 49°29' W 000°08'0 0.0
2016-Jul-22 23:31N 49°29' W 000°08'0 0.0
2016-Jul-22 22:31N 49°29' W 000°08'0 0.1
2016-Jul-22 21:31N 49°29' W 000°08'0 0.1
2016-Jul-22 20:31N 49°29' W 000°08'0 0.1
2016-Jul-22 19:31N 49°29' W 000°08'0 0.0
2016-Jul-22 18:31N 49°29' W 000°08'0 0.0
2016-Jul-22 17:31N 49°29' W 000°08'0 0.0
2016-Jul-22 16:31N 49°29' W 000°08'0 0.0
2016-Jul-22 15:31N 49°29' W 000°08'0 0.0
2016-Jul-22 14:31N 49°29' W 000°08'0 0.1
2016-Jul-22 13:31N 49°29' W 000°08'0 0.1
2016-Jul-22 12:31N 49°29' W 000°08'0 0.0
2016-Jul-22 11:31N 49°29' W 000°08'0 0.0
2016-Jul-22 10:31N 49°29' W 000°08'0 0.0
2016-Jul-22 09:31N 49°29' W 000°08'0 0.1
2016-Jul-22 08:31N 49°29' W 000°08'0 0.1
2016-Jul-22 07:31N 49°29' W 000°08'0 0.0
2016-Jul-22 04:31N 49°29' W 000°08'0 0.0
2016-Jul-22 03:31N 49°29' W 000°08'0 0.0
2016-Jul-22 02:31N 49°29' W 000°08'0 0.1
2016-Jul-22 01:31N 49°29' W 000°08'0 0.1
2016-Jul-22 00:31N 49°29' W 000°08'0 0.0
2016-Jul-21 23:31N 49°29' W 000°08'0 0.0
2016-Jul-21 22:31N 49°29' W 000°08'0 0.0
2016-Jul-21 21:31N 49°29' W 000°08'0 0.1
2016-Jul-21 20:31N 49°29' W 000°08'0 0.1
2016-Jul-21 19:31N 49°29' W 000°08'0 0.1
2016-Jul-21 18:31N 49°29' W 000°08'0 0.0
2016-Jul-21 17:31N 49°29' W 000°08'0 0.0
2016-Jul-21 16:31N 49°29' W 000°08'0 0.0
2016-Jul-21 15:31N 49°29' W 000°08'0 0.0
2016-Jul-21 14:31N 49°29' W 000°08'0 0.1
2016-Jul-21 13:31N 49°29' W 000°08'0 0.2
2016-Jul-21 12:31N 49°29' W 000°08'0 0.0
2016-Jul-21 11:31N 49°29' W 000°08'0 0.1
2016-Jul-21 10:31N 49°29' W 000°08'0 0.0
2016-Jul-21 09:31N 49°29' W 000°08'0 0.0
2016-Jul-21 08:31N 49°29' W 000°08'0 0.1
2016-Jul-21 07:31N 49°29' W 000°08'0 0.1
2016-Jul-21 06:31N 49°29' W 000°08'0 0.1
2016-Jul-21 05:31N 49°29' W 000°08'0 0.0
2016-Jul-21 04:31N 49°29' W 000°08'0 0.1
2016-Jul-21 03:31N 49°29' W 000°08'0 0.1
2016-Jul-21 02:31N 49°29' W 000°08'0 0.0
2016-Jul-21 01:31N 49°29' W 000°08'0 0.1
2016-Jul-21 00:31N 49°29' W 000°08'0 0.0
2016-Jul-20 23:31N 49°29' W 000°08'0 0.0
2016-Jul-20 22:31N 49°29' W 000°08'0 0.0
2016-Jul-20 21:31N 49°29' W 000°08'0 0.0
2016-Jul-20 20:31N 49°29' W 000°08'0 0.1
2016-Jul-20 19:31N 49°29' W 000°08'0 0.1
2016-Jul-20 18:28N 49°29' W 000°08'0 0.0
2016-Jul-20 17:31N 49°29' W 000°08'0 0.1
2016-Jul-20 16:31N 49°29' W 000°08'0 0.1
2016-Jul-20 15:31N 49°29' W 000°08'0 0.0
2016-Jul-20 14:31N 49°29' W 000°08'0 0.1
2016-Jul-20 13:31N 49°29' W 000°08'0 0.0
2016-Jul-20 12:31N 49°29' W 000°08'0 0.1
2016-Jul-20 11:31N 49°29' W 000°08'0 0.1
2016-Jul-20 10:31N 49°29' W 000°08'0 0.0
2016-Jul-20 09:31N 49°29' W 000°08'0 0.0
2016-Jul-20 08:31N 49°29' W 000°08'0 0.0
2016-Jul-20 07:31N 49°29' W 000°08'0 0.0
2016-Jul-20 06:34N 49°29' W 000°08'0 0.2
2016-Jul-20 05:31N 49°29' W 000°08'0 0.0
2016-Jul-20 04:31N 49°29' W 000°08'0 0.0
2016-Jul-20 03:31N 49°29' W 000°08'0 0.0
2016-Jul-20 02:31N 49°29' W 000°08'0 0.1
2016-Jul-20 01:31N 49°29' W 000°08'0 0.0
2016-Jul-20 00:31N 49°29' W 000°08'0 0.1
2016-Jul-19 23:31N 49°29' W 000°08'0 0.2
2016-Jul-19 22:31N 49°29' W 000°08'0 0.0
2016-Jul-19 21:31N 49°29' W 000°08'0 0.0
2016-Jul-19 20:31N 49°29' W 000°08'0 0.1
2016-Jul-19 19:31N 49°29' W 000°08'0 0.2
2016-Jul-19 18:31N 49°29' W 000°08'0 0.1
2016-Jul-19 17:31N 49°29' W 000°08'0 0.1
2016-Jul-19 16:31N 49°29' W 000°08'0 0.0
2016-Jul-19 15:31N 49°29' W 000°08'0 0.0
2016-Jul-19 14:31N 49°29' W 000°08'0 0.0
2016-Jul-19 13:31N 49°29' W 000°08'0 0.0
2016-Jul-19 12:31N 49°29' W 000°08'0 0.0
2016-Jul-19 11:31N 49°29' W 000°08'0 0.1
2016-Jul-19 10:31N 49°29' W 000°08'0 0.1
2016-Jul-19 09:31N 49°29' W 000°08'0 0.0
2016-Jul-19 08:31N 49°29' W 000°08'0 0.0
2016-Jul-19 07:31N 49°29' W 000°08'0 0.1
2016-Jul-19 04:31N 49°29' W 000°08'0 0.0
2016-Jul-19 03:31N 49°29' W 000°08'0 0.0
2016-Jul-19 02:31N 49°29' W 000°08'0 0.0
2016-Jul-19 01:31N 49°29' W 000°08'0 0.0
2016-Jul-19 00:31N 49°29' W 000°08'0 0.0
2016-Jul-18 23:31N 49°29' W 000°08'0 0.0
2016-Jul-18 22:31N 49°29' W 000°08'0 0.1
2016-Jul-18 21:31N 49°29' W 000°08'0 0.0
2016-Jul-18 20:25N 49°29' W 000°08'0 0.0
2016-Jul-18 19:31N 49°29' W 000°08'0 0.2
2016-Jul-18 18:31N 49°29' W 000°08'0 0.0
2016-Jul-18 17:31N 49°29' W 000°08'0 0.0
2016-Jul-18 16:31N 49°29' W 000°08'0 0.0
2016-Jul-18 15:31N 49°29' W 000°08'0 0.0
2016-Jul-18 14:31N 49°29' W 000°08'0 0.0
2016-Jul-18 13:31N 49°29' W 000°08'0 0.0
2016-Jul-18 12:31N 49°29' W 000°08'0 0.0
2016-Jul-18 11:31N 49°29' W 000°08'0 0.1
2016-Jul-18 10:31N 49°29' W 000°08'0 0.1
2016-Jul-18 09:31N 49°29' W 000°08'0 0.1
2016-Jul-18 08:31N 49°29' W 000°08'0 0.1
2016-Jul-18 07:31N 49°29' W 000°08'0 0.0
2016-Jul-18 06:31N 49°29' W 000°08'0 0.1
2016-Jul-18 05:31N 49°29' W 000°08'0 0.1
2016-Jul-18 04:31N 49°29' W 000°08'0 0.1
2016-Jul-18 03:31N 49°29' W 000°08'0 0.0
2016-Jul-18 02:31N 49°29' W 000°08'0 0.0
2016-Jul-18 01:31N 49°29' W 000°08'0 0.0
2016-Jul-18 00:31N 49°29' W 000°08'0 0.0
2016-Jul-17 23:31N 49°29' W 000°08'0 0.1
2016-Jul-17 22:31N 49°29' W 000°08'0 0.1
2016-Jul-17 21:31N 49°29' W 000°08'0 0.1
2016-Jul-17 20:31N 49°29' W 000°08'0 0.0
2016-Jul-17 19:31N 49°29' W 000°08'0 0.0
2016-Jul-17 18:31N 49°29' W 000°08'0 0.1
2016-Jul-17 17:31N 49°29' W 000°08'0 0.1
2016-Jul-17 16:31N 49°29' W 000°08'0 0.1
2016-Jul-17 15:31N 49°29' W 000°08'  

Dump ship's entire track history